createdAt,value
2018-09-23T00:01:39.813Z,13.80
2018-09-23T00:04:08.529Z,13.80
2018-09-23T00:06:37.282Z,13.80
2018-09-23T00:09:07.998Z,13.70
2018-09-23T00:11:36.752Z,13.70
2018-09-23T00:14:05.559Z,13.80
2018-09-23T00:16:34.270Z,13.70
2018-09-23T00:19:02.965Z,13.70
2018-09-23T00:21:31.608Z,13.70
2018-09-23T00:24:00.353Z,13.60
2018-09-23T00:26:29.077Z,13.60
2018-09-23T00:28:57.755Z,13.60
2018-09-23T00:31:26.489Z,13.50
2018-09-23T00:33:55.306Z,13.30
2018-09-23T00:36:24.078Z,13.20
2018-09-23T00:38:52.765Z,13.10
2018-09-23T00:41:21.577Z,13.10
2018-09-23T00:43:50.300Z,13.00
2018-09-23T00:46:19.135Z,13.00
2018-09-23T00:48:47.939Z,13.00
2018-09-23T00:51:16.722Z,13.00
2018-09-23T00:53:45.563Z,13.00
2018-09-23T00:56:14.273Z,13.00
2018-09-23T00:58:43.025Z,13.00
2018-09-23T01:01:11.792Z,13.00
2018-09-23T01:03:40.513Z,12.90
2018-09-23T01:06:09.205Z,12.90
2018-09-23T01:08:37.860Z,12.80
2018-09-23T01:11:06.544Z,12.70
2018-09-23T01:13:35.226Z,12.80
2018-09-23T01:16:03.930Z,12.80
2018-09-23T01:18:32.565Z,12.80
2018-09-23T01:21:01.234Z,12.80
2018-09-23T01:23:29.868Z,12.90
2018-09-23T01:25:58.541Z,13.00
2018-09-23T01:28:27.296Z,12.90
2018-09-23T01:30:55.969Z,12.90
2018-09-23T01:33:24.636Z,12.90
2018-09-23T01:35:53.253Z,12.80
2018-09-23T01:38:21.936Z,12.80
2018-09-23T01:40:50.661Z,12.80
2018-09-23T01:43:19.276Z,12.70
2018-09-23T01:45:47.933Z,12.70
2018-09-23T01:48:16.586Z,12.60
2018-09-23T01:50:45.237Z,12.60
2018-09-23T01:53:13.889Z,12.50
2018-09-23T01:55:42.564Z,12.60
2018-09-23T01:58:11.224Z,12.60
2018-09-23T02:00:39.929Z,12.60
2018-09-23T02:03:08.597Z,12.60
2018-09-23T02:05:37.270Z,12.60
2018-09-23T02:08:06.186Z,12.60
2018-09-23T02:10:34.828Z,12.50
2018-09-23T02:13:04.378Z,12.50
2018-09-23T02:15:33.038Z,12.50
2018-09-23T02:18:01.710Z,12.50
2018-09-23T02:20:30.331Z,12.50
2018-09-23T02:22:59.029Z,12.50
2018-09-23T02:25:27.664Z,12.50
2018-09-23T02:27:56.329Z,12.50
2018-09-23T02:30:25.113Z,12.40
2018-09-23T02:32:53.823Z,12.50
2018-09-23T02:35:23.150Z,12.50
2018-09-23T02:37:53.513Z,12.50
2018-09-23T02:40:22.165Z,12.50
2018-09-23T02:42:50.915Z,12.50
2018-09-23T02:45:19.719Z,12.50
2018-09-23T02:47:48.512Z,12.50
2018-09-23T02:50:17.115Z,12.50
2018-09-23T02:52:45.761Z,12.60
2018-09-23T02:55:14.545Z,12.60
2018-09-23T02:57:43.234Z,12.70
2018-09-23T03:00:11.969Z,12.70
2018-09-23T03:02:40.624Z,12.80
2018-09-23T03:05:09.310Z,12.80
2018-09-23T03:07:38.025Z,12.80
2018-09-23T03:10:06.996Z,12.80
2018-09-23T03:12:35.605Z,12.80
2018-09-23T03:15:04.358Z,12.80
2018-09-23T03:17:33.032Z,12.80
2018-09-23T03:20:01.647Z,12.80
2018-09-23T03:22:30.329Z,12.80
2018-09-23T03:24:59.018Z,12.80
2018-09-23T03:27:27.670Z,12.90
2018-09-23T03:29:56.357Z,12.90
2018-09-23T03:32:25.190Z,12.90
2018-09-23T03:34:53.842Z,12.90
2018-09-23T03:37:22.493Z,12.90
2018-09-23T03:39:51.182Z,12.90
2018-09-23T03:42:19.917Z,12.90
2018-09-23T03:44:49.900Z,12.90
2018-09-23T03:47:19.442Z,12.90
2018-09-23T03:49:49.669Z,12.90
2018-09-23T03:52:19.307Z,12.90
2018-09-23T03:54:49.211Z,12.90
2018-09-23T03:57:18.937Z,12.90
2018-09-23T03:59:49.024Z,13.00
2018-09-23T04:02:21.029Z,12.90
2018-09-23T04:04:50.970Z,12.80
2018-09-23T04:07:19.669Z,12.90
2018-09-23T04:09:48.433Z,12.90
2018-09-23T04:12:17.118Z,12.90
2018-09-23T04:14:45.779Z,12.90
2018-09-23T04:17:14.491Z,12.90
2018-09-23T04:19:43.225Z,12.80
2018-09-23T04:22:11.921Z,12.70
2018-09-23T04:24:40.610Z,12.70
2018-09-23T04:27:09.298Z,12.80
2018-09-23T04:29:37.972Z,12.80
2018-09-23T04:32:06.825Z,12.80
2018-09-23T04:34:35.470Z,12.90
2018-09-23T04:37:04.129Z,12.90
2018-09-23T04:39:32.864Z,12.90
2018-09-23T04:42:01.548Z,13.00
2018-09-23T04:44:30.202Z,13.00
2018-09-23T04:46:58.864Z,13.10
2018-09-23T04:49:27.500Z,13.10
2018-09-23T04:51:56.173Z,13.00
2018-09-23T04:54:24.794Z,13.00
2018-09-23T04:56:53.409Z,13.10
2018-09-23T04:59:22.034Z,13.10
2018-09-23T05:01:50.727Z,13.10
2018-09-23T05:04:19.412Z,13.10
2018-09-23T05:06:48.062Z,13.10
2018-09-23T05:09:16.776Z,13.10
2018-09-23T05:11:45.425Z,13.10
2018-09-23T05:14:14.101Z,13.00
2018-09-23T05:16:42.791Z,13.10
2018-09-23T05:19:11.565Z,13.00
2018-09-23T05:21:40.257Z,13.10
2018-09-23T05:24:08.919Z,13.20
2018-09-23T05:26:37.564Z,13.20
2018-09-23T05:29:06.218Z,13.20
2018-09-23T05:31:34.949Z,13.20
2018-09-23T05:34:03.582Z,13.60
2018-09-23T05:36:32.284Z,13.90
2018-09-23T05:39:00.952Z,14.20
2018-09-23T05:41:29.661Z,14.50
2018-09-23T05:43:58.286Z,14.70
2018-09-23T05:46:26.925Z,14.90
2018-09-23T05:48:55.584Z,15.00
2018-09-23T05:51:25.011Z,15.00
2018-09-23T05:53:53.917Z,15.20
2018-09-23T05:56:22.610Z,15.30
2018-09-23T05:58:51.714Z,15.50
2018-09-23T06:01:20.445Z,15.50
2018-09-23T06:03:49.176Z,15.60
2018-09-23T06:06:18.646Z,15.80
2018-09-23T06:08:47.353Z,16.00
2018-09-23T06:11:16.032Z,16.10
2018-09-23T06:13:44.702Z,16.30
2018-09-23T06:16:13.368Z,16.50
2018-09-23T06:18:42.008Z,16.60
2018-09-23T06:21:10.681Z,16.80
2018-09-23T06:23:39.859Z,17.00
2018-09-23T06:26:08.597Z,17.20
2018-09-23T06:28:37.264Z,17.30
2018-09-23T06:31:06.157Z,17.40
2018-09-23T06:33:34.807Z,17.50
2018-09-23T06:36:03.460Z,17.60
2018-09-23T06:38:32.218Z,17.60
2018-09-23T06:41:00.886Z,17.70
2018-09-23T06:43:29.537Z,17.80
2018-09-23T06:45:58.166Z,17.90
2018-09-23T06:48:26.878Z,17.90
2018-09-23T06:50:55.595Z,18.00
2018-09-23T06:53:24.257Z,18.10
2018-09-23T06:55:52.891Z,18.20
2018-09-23T06:58:21.641Z,18.30
2018-09-23T07:00:50.320Z,18.40
2018-09-23T07:03:19.031Z,18.60
2018-09-23T07:05:47.734Z,18.70
2018-09-23T07:08:16.594Z,18.80
2018-09-23T07:10:45.268Z,18.90
2018-09-23T07:13:14.009Z,19.10
2018-09-23T07:15:42.626Z,19.30
2018-09-23T07:18:11.383Z,19.40
2018-09-23T07:20:40.001Z,19.50
2018-09-23T07:23:08.697Z,19.60
2018-09-23T07:25:37.337Z,19.80
2018-09-23T07:28:06.013Z,19.80
2018-09-23T07:30:34.668Z,19.90
2018-09-23T07:33:03.346Z,19.90
2018-09-23T07:35:31.972Z,19.90
2018-09-23T07:38:00.769Z,19.90
2018-09-23T07:40:29.544Z,19.90
2018-09-23T07:42:58.285Z,19.70
2018-09-23T07:45:26.959Z,19.10
2018-09-23T07:47:55.628Z,18.70
2018-09-23T07:50:24.353Z,18.50
2018-09-23T07:52:53.077Z,18.40
2018-09-23T07:55:21.708Z,18.40
2018-09-23T07:57:50.437Z,18.60
2018-09-23T08:00:19.092Z,18.80
2018-09-23T08:02:47.740Z,18.90
2018-09-23T08:05:16.440Z,19.10
2018-09-23T08:07:45.091Z,19.30
2018-09-23T08:10:13.792Z,19.40
2018-09-23T08:12:42.567Z,19.60
2018-09-23T08:15:11.264Z,19.70
2018-09-23T08:17:39.965Z,19.80
2018-09-23T08:20:08.725Z,19.90
2018-09-23T08:22:37.422Z,19.90
2018-09-23T08:25:06.174Z,19.90
2018-09-23T08:27:35.187Z,19.90
2018-09-23T08:30:03.953Z,19.80
2018-09-23T08:32:32.669Z,19.70
2018-09-23T08:35:01.333Z,19.70
2018-09-23T08:37:30.112Z,19.70
2018-09-23T08:39:58.790Z,19.50
2018-09-23T08:42:27.461Z,19.50
2018-09-23T08:44:56.103Z,19.50
2018-09-23T08:47:24.739Z,19.50
2018-09-23T08:49:53.550Z,19.60
2018-09-23T08:52:22.224Z,19.70
2018-09-23T08:54:50.889Z,19.80
2018-09-23T08:57:19.545Z,19.90
2018-09-23T08:59:48.265Z,20.00
2018-09-23T09:02:17.037Z,20.10
2018-09-23T09:04:46.021Z,20.20
2018-09-23T09:07:14.852Z,20.10
2018-09-23T09:09:43.750Z,20.10
2018-09-23T09:12:12.449Z,20.20
2018-09-23T09:14:41.196Z,20.30
2018-09-23T09:17:09.893Z,20.30
2018-09-23T09:19:38.517Z,20.30
2018-09-23T09:22:07.293Z,20.40
2018-09-23T09:24:37.281Z,20.60
2018-09-23T09:27:06.297Z,20.60
2018-09-23T09:29:34.978Z,20.60
2018-09-23T09:32:03.722Z,20.50
2018-09-23T09:34:32.345Z,20.40
2018-09-23T09:37:01.015Z,20.40
2018-09-23T09:39:30.977Z,20.40
2018-09-23T09:41:59.637Z,20.30
2018-09-23T09:44:28.337Z,20.30
2018-09-23T09:46:57.362Z,20.20
2018-09-23T09:49:26.059Z,20.40
2018-09-23T09:51:54.832Z,20.50
2018-09-23T09:54:23.486Z,20.40
2018-09-23T09:56:52.189Z,20.40
2018-09-23T09:59:21.732Z,20.40
2018-09-23T10:01:51.002Z,20.50
2018-09-23T10:04:19.884Z,20.50
2018-09-23T10:06:48.918Z,20.50
2018-09-23T10:09:17.797Z,20.50
2018-09-23T10:11:46.768Z,20.60
2018-09-23T10:14:15.688Z,20.60
2018-09-23T10:16:44.622Z,20.60
2018-09-23T10:19:13.544Z,20.70
2018-09-23T10:21:42.438Z,20.70
2018-09-23T10:24:11.316Z,20.70
2018-09-23T10:26:40.174Z,20.70
2018-09-23T10:29:09.050Z,20.80
2018-09-23T10:31:38.102Z,20.90
2018-09-23T10:34:06.924Z,20.90
2018-09-23T10:36:35.922Z,21.00
2018-09-23T10:39:06.650Z,21.00
2018-09-23T10:41:35.691Z,21.10
2018-09-23T10:44:05.199Z,21.10
2018-09-23T10:46:34.318Z,21.10
2018-09-23T10:49:03.275Z,21.10
2018-09-23T10:51:32.208Z,21.20
2018-09-23T10:54:01.017Z,21.10
2018-09-23T10:56:29.657Z,20.90
2018-09-23T10:58:58.390Z,20.90
2018-09-23T11:01:27.065Z,20.70
2018-09-23T11:03:55.859Z,20.70
2018-09-23T11:06:24.405Z,20.70
2018-09-23T11:08:53.086Z,20.80
2018-09-23T11:11:21.797Z,21.00
2018-09-23T11:13:50.477Z,21.20
2018-09-23T11:16:19.146Z,21.30
2018-09-23T11:18:47.845Z,21.40
2018-09-23T11:21:16.522Z,21.50
2018-09-23T11:23:52.209Z,21.70
2018-09-23T11:26:21.082Z,21.80
2018-09-23T11:28:50.167Z,21.90
2018-09-23T11:31:19.249Z,22.00
2018-09-23T11:33:48.877Z,22.10
2018-09-23T11:36:18.190Z,22.10
2018-09-23T11:38:48.499Z,22.00
2018-09-23T11:41:17.409Z,22.00
2018-09-23T11:43:47.381Z,21.90
2018-09-23T11:46:16.196Z,21.80
2018-09-23T11:48:44.929Z,21.80
2018-09-23T11:51:13.572Z,21.80
2018-09-23T11:53:42.307Z,21.90
2018-09-23T11:56:11.021Z,22.00
2018-09-23T11:58:39.704Z,22.00
2018-09-23T12:01:09.264Z,22.10
2018-09-23T12:03:37.958Z,22.20
2018-09-23T12:06:06.721Z,22.30
2018-09-23T12:08:35.449Z,22.30
2018-09-23T12:11:04.261Z,22.40
2018-09-23T12:13:32.952Z,22.40
2018-09-23T12:16:01.632Z,22.40
2018-09-23T12:18:30.304Z,22.40
2018-09-23T12:20:58.975Z,22.50
2018-09-23T12:23:29.211Z,22.60
2018-09-23T12:25:58.367Z,22.80
2018-09-23T12:28:27.069Z,23.20
2018-09-23T12:30:55.913Z,23.60
2018-09-23T12:33:24.738Z,23.60
2018-09-23T12:35:53.662Z,23.50
2018-09-23T12:38:22.425Z,23.50
2018-09-23T12:40:51.750Z,23.50
2018-09-23T12:43:20.676Z,23.60
2018-09-23T12:45:49.549Z,23.60
2018-09-23T12:48:24.168Z,23.60
2018-09-23T12:50:52.969Z,23.60
2018-09-23T12:53:27.337Z,23.70
2018-09-23T12:56:05.459Z,24.00
2018-09-23T12:58:34.277Z,24.40
2018-09-23T13:01:07.774Z,25.00
2018-09-23T13:03:44.451Z,25.10
2018-09-23T13:06:13.303Z,25.10
2018-09-23T13:08:41.965Z,25.00
2018-09-23T13:11:10.717Z,25.00
2018-09-23T13:13:39.377Z,24.90
2018-09-23T13:16:08.107Z,24.90
2018-09-23T13:18:36.786Z,25.00
2018-09-23T13:21:05.469Z,25.50
2018-09-23T13:23:34.132Z,25.90
2018-09-23T13:26:02.950Z,26.00
2018-09-23T13:28:31.646Z,26.00
2018-09-23T13:31:00.431Z,25.70
2018-09-23T13:33:29.154Z,25.40
2018-09-23T13:35:57.832Z,25.50
2018-09-23T13:38:26.464Z,25.50
2018-09-23T13:40:55.279Z,25.80
2018-09-23T13:43:23.880Z,25.80
2018-09-23T13:45:52.610Z,25.60
2018-09-23T13:48:21.211Z,25.40
2018-09-23T13:50:49.908Z,25.10
2018-09-23T13:53:18.601Z,25.00
2018-09-23T13:55:47.268Z,24.80
2018-09-23T13:58:15.997Z,25.30
2018-09-23T14:00:44.671Z,25.60
2018-09-23T14:03:13.331Z,25.50
2018-09-23T14:05:41.962Z,25.20
2018-09-23T14:08:10.605Z,24.70
2018-09-23T14:10:39.281Z,24.50
2018-09-23T14:13:08.000Z,24.30
2018-09-23T14:15:36.921Z,24.00
2018-09-23T14:18:05.889Z,23.40
2018-09-23T14:20:34.737Z,23.10
2018-09-23T14:23:03.579Z,23.00
2018-09-23T14:25:37.474Z,23.00
2018-09-23T14:28:06.115Z,22.90
2018-09-23T14:30:34.849Z,22.50
2018-09-23T14:33:03.488Z,22.30
2018-09-23T14:35:32.153Z,22.10
2018-09-23T14:38:00.748Z,21.70
2018-09-23T14:40:29.629Z,21.40
2018-09-23T14:43:00.489Z,21.20
2018-09-23T14:45:29.172Z,21.20
2018-09-23T14:47:58.449Z,21.20
2018-09-23T14:50:27.162Z,21.20
2018-09-23T14:52:56.037Z,21.30
2018-09-23T14:55:24.809Z,21.50
2018-09-23T14:57:54.391Z,21.70
2018-09-23T15:00:23.256Z,21.80
2018-09-23T15:02:52.142Z,21.90
2018-09-23T15:05:20.790Z,22.00
2018-09-23T15:07:49.457Z,22.10
2018-09-23T15:10:19.135Z,22.20
2018-09-23T15:12:48.894Z,22.20
2018-09-23T15:15:17.775Z,22.30
2018-09-23T15:17:46.433Z,22.30
2018-09-23T15:20:15.181Z,22.50
2018-09-23T15:22:43.864Z,22.50
2018-09-23T15:25:12.781Z,22.60
2018-09-23T15:27:41.489Z,22.40
2018-09-23T15:30:10.194Z,22.00
2018-09-23T15:32:38.881Z,21.60
2018-09-23T15:35:08.493Z,21.50
2018-09-23T15:37:38.209Z,21.30
2018-09-23T15:40:07.152Z,21.20
2018-09-23T15:42:35.901Z,21.30
2018-09-23T15:45:04.707Z,21.20
2018-09-23T15:47:33.758Z,21.30
2018-09-23T15:50:02.622Z,21.40
2018-09-23T15:52:31.510Z,21.70
2018-09-23T15:55:00.159Z,21.80
2018-09-23T15:57:29.985Z,21.70
2018-09-23T16:00:01.460Z,21.90
2018-09-23T16:02:30.396Z,22.00
2018-09-23T16:04:59.148Z,22.20
2018-09-23T16:07:28.334Z,22.50
2018-09-23T16:09:56.989Z,22.60
2018-09-23T16:12:25.779Z,22.70
2018-09-23T16:14:54.521Z,22.70
2018-09-23T16:17:23.204Z,22.70
2018-09-23T16:19:51.837Z,21.40
2018-09-23T16:22:20.547Z,19.40
2018-09-23T16:24:49.241Z,18.00
2018-09-23T16:27:17.901Z,17.40
2018-09-23T16:29:46.785Z,17.20
2018-09-23T16:32:16.077Z,17.10
2018-09-23T16:34:44.749Z,17.00
2018-09-23T16:37:13.376Z,16.90
2018-09-23T16:39:43.526Z,16.90
2018-09-23T16:42:12.325Z,16.90
2018-09-23T16:44:41.597Z,16.90
2018-09-23T16:47:10.865Z,16.80
2018-09-23T16:49:39.570Z,16.80
2018-09-23T16:52:13.828Z,16.80
2018-09-23T16:54:43.492Z,16.70
2018-09-23T16:57:14.610Z,16.50
2018-09-23T16:59:49.661Z,16.40
2018-09-23T17:02:18.338Z,16.20
2018-09-23T17:04:47.090Z,16.10
2018-09-23T17:07:15.870Z,16.10
2018-09-23T17:09:44.836Z,16.10
2018-09-23T17:12:13.519Z,16.00
2018-09-23T17:14:42.281Z,16.00
2018-09-23T17:17:11.084Z,15.90
2018-09-23T17:19:39.777Z,15.90
2018-09-23T17:22:08.853Z,15.90
2018-09-23T17:24:37.621Z,15.90
2018-09-23T17:27:06.697Z,15.90
2018-09-23T17:29:35.462Z,15.90
2018-09-23T17:32:04.136Z,15.90
2018-09-23T17:34:32.818Z,15.90
2018-09-23T17:37:01.865Z,16.00
2018-09-23T17:39:30.574Z,15.90
2018-09-23T17:44:53.530Z,15.90
2018-09-23T17:47:26.549Z,15.90
2018-09-23T17:50:01.910Z,15.90
2018-09-23T17:52:36.171Z,15.90
2018-09-23T17:55:04.992Z,15.90
2018-09-23T17:57:37.164Z,15.80
2018-09-23T18:00:14.229Z,15.80
2018-09-23T18:02:44.991Z,15.80
2018-09-23T18:05:18.241Z,15.70
2018-09-23T18:07:48.184Z,15.70
2018-09-23T18:10:20.945Z,15.70
2018-09-23T18:12:49.865Z,15.70
2018-09-23T18:15:18.555Z,15.40
2018-09-23T18:17:47.197Z,15.20
2018-09-23T18:20:15.881Z,15.00
2018-09-23T18:22:44.452Z,14.80
2018-09-23T18:25:13.367Z,14.50
2018-09-23T18:27:42.037Z,14.30
2018-09-23T18:30:10.718Z,14.10
2018-09-23T18:32:39.397Z,13.90
2018-09-23T18:35:08.217Z,13.70
2018-09-23T18:37:36.948Z,13.60
2018-09-23T18:40:06.094Z,13.40
2018-09-23T18:42:34.839Z,13.40
2018-09-23T18:45:03.538Z,13.20
2018-09-23T18:47:32.270Z,13.20
2018-09-23T18:50:00.959Z,13.10
2018-09-23T18:52:29.589Z,13.00
2018-09-23T18:55:03.919Z,13.00
2018-09-23T18:57:32.670Z,12.90
2018-09-23T19:00:01.424Z,12.90
2018-09-23T19:02:30.133Z,12.90
2018-09-23T19:04:58.797Z,12.90
2018-09-23T19:07:28.682Z,12.80
2018-09-23T19:09:57.342Z,12.80
2018-09-23T19:12:26.045Z,12.80
2018-09-23T19:14:54.649Z,12.70
2018-09-23T19:17:23.321Z,12.80
2018-09-23T19:19:57.240Z,12.70
2018-09-23T19:22:31.159Z,12.60
2018-09-23T19:24:59.853Z,12.60
2018-09-23T19:27:28.525Z,12.50
2018-09-23T19:29:57.222Z,12.50
2018-09-23T19:32:25.966Z,12.50
2018-09-23T19:34:54.636Z,12.50
2018-09-23T19:37:23.381Z,12.50
2018-09-23T19:39:52.094Z,12.50
2018-09-23T19:42:20.904Z,12.40
2018-09-23T19:44:49.586Z,12.40
2018-09-23T19:47:18.294Z,12.40
2018-09-23T19:49:46.961Z,12.40
2018-09-23T19:52:23.330Z,12.40
2018-09-23T19:54:52.013Z,12.40
2018-09-23T19:57:20.701Z,12.30
2018-09-23T19:59:49.660Z,12.30
2018-09-23T20:02:18.425Z,12.30
2018-09-23T20:04:47.140Z,12.30
2018-09-23T20:07:15.747Z,12.20
2018-09-23T20:09:44.421Z,12.20
2018-09-23T20:12:13.190Z,12.20
2018-09-23T20:14:42.028Z,12.10
2018-09-23T20:17:10.733Z,12.10
2018-09-23T20:19:39.452Z,12.10
2018-09-23T20:22:09.473Z,12.00
2018-09-23T20:24:48.902Z,12.00
2018-09-23T20:27:17.588Z,11.90
2018-09-23T20:29:46.218Z,11.90
2018-09-23T20:32:14.881Z,11.80
2018-09-23T20:34:43.590Z,11.80
2018-09-23T20:37:12.328Z,11.80
2018-09-23T20:39:41.106Z,11.70
2018-09-23T20:42:09.781Z,11.70
2018-09-23T20:44:38.457Z,11.70
2018-09-23T20:47:06.789Z,11.70
2018-09-23T20:49:35.444Z,11.60
2018-09-23T20:52:04.133Z,11.60
2018-09-23T20:54:32.834Z,11.60
2018-09-23T20:57:01.820Z,11.60
2018-09-23T20:59:30.500Z,11.60
2018-09-23T21:01:59.194Z,11.60
2018-09-23T21:04:27.985Z,11.60
2018-09-23T21:06:58.472Z,11.60
2018-09-23T21:09:27.210Z,11.60
2018-09-23T21:11:55.869Z,11.50
2018-09-23T21:14:24.533Z,11.50
2018-09-23T21:16:53.162Z,11.60
2018-09-23T21:19:21.876Z,11.60
2018-09-23T21:21:50.601Z,11.60
2018-09-23T21:24:19.329Z,11.60
2018-09-23T21:26:47.960Z,11.50
2018-09-23T21:29:16.660Z,11.50
2018-09-23T21:31:45.384Z,11.50
2018-09-23T21:34:14.162Z,11.50
2018-09-23T21:36:42.817Z,11.40
2018-09-23T21:39:11.533Z,11.40
2018-09-23T21:41:40.253Z,11.30
2018-09-23T21:44:09.401Z,11.30
2018-09-23T21:46:38.148Z,11.30
2018-09-23T21:49:06.855Z,11.30
2018-09-23T21:51:35.506Z,11.30
2018-09-23T21:54:04.393Z,11.30
2018-09-23T21:56:33.069Z,11.30
2018-09-23T21:59:01.699Z,11.30
2018-09-23T22:01:30.401Z,11.30
2018-09-23T22:03:59.094Z,11.30
2018-09-23T22:06:27.885Z,11.30
2018-09-23T22:08:56.518Z,11.20
2018-09-23T22:11:25.203Z,11.20
2018-09-23T22:13:53.835Z,11.10
2018-09-23T22:16:22.499Z,11.10
2018-09-23T22:18:51.172Z,11.10
2018-09-23T22:21:19.857Z,11.10
2018-09-23T22:23:48.504Z,11.00
2018-09-23T22:26:17.145Z,11.00
2018-09-23T22:28:45.770Z,11.00
2018-09-23T22:31:14.485Z,10.90
2018-09-23T22:33:43.154Z,10.90
2018-09-23T22:36:11.826Z,10.90
2018-09-23T22:38:40.562Z,10.90
2018-09-23T22:41:09.259Z,10.80
2018-09-23T22:43:37.934Z,10.80
2018-09-23T22:46:06.646Z,10.70
2018-09-23T22:48:35.426Z,10.70
2018-09-23T22:51:04.181Z,10.60
2018-09-23T22:53:32.831Z,10.60
2018-09-23T22:56:01.545Z,10.60
2018-09-23T22:58:30.264Z,10.50
2018-09-23T23:00:59.102Z,10.50
2018-09-23T23:03:27.845Z,10.40
2018-09-23T23:05:56.522Z,10.40
2018-09-23T23:08:25.233Z,10.30
2018-09-23T23:10:53.962Z,10.30
2018-09-23T23:13:22.631Z,10.30
2018-09-23T23:15:51.837Z,10.20
2018-09-23T23:18:20.503Z,10.20
2018-09-23T23:20:49.197Z,10.20
2018-09-23T23:23:17.946Z,10.10
2018-09-23T23:25:46.617Z,10.10
2018-09-23T23:28:15.277Z,10.10
2018-09-23T23:30:43.925Z,10.00
2018-09-23T23:33:13.781Z,10.00
2018-09-23T23:35:42.462Z,9.90
2018-09-23T23:38:11.125Z,9.90
2018-09-23T23:40:39.796Z,9.90
2018-09-23T23:43:08.475Z,9.90
2018-09-23T23:45:37.205Z,9.90
2018-09-23T23:48:06.058Z,9.90
2018-09-23T23:50:34.729Z,9.90
2018-09-23T23:53:03.424Z,9.90
2018-09-23T23:55:32.105Z,9.80
2018-09-23T23:58:00.784Z,9.80
